sensor_id;sensor_type;location;lat;lon;timestamp;temperature;humidity
14000;DHT22;7075;53.574;10.054;2023-05-07T00:01:59;10.60;99.90
14000;DHT22;7075;53.574;10.054;2023-05-07T00:04:24;10.50;99.90
14000;DHT22;7075;53.574;10.054;2023-05-07T00:06:50;10.50;99.90
14000;DHT22;7075;53.574;10.054;2023-05-07T00:09:16;10.50;99.90
14000;DHT22;7075;53.574;10.054;2023-05-07T00:11:42;10.50;99.90
14000;DHT22;7075;53.574;10.054;2023-05-07T00:14:07;10.50;99.90
14000;DHT22;7075;53.574;10.054;2023-05-07T00:16:33;10.50;99.90
14000;DHT22;7075;53.574;10.054;2023-05-07T00:18:58;10.50;99.90
14000;DHT22;7075;53.574;10.054;2023-05-07T00:21:24;10.50;99.90
14000;DHT22;7075;53.574;10.054;2023-05-07T00:23:54;10.50;99.90
14000;DHT22;7075;53.574;10.054;2023-05-07T00:26:19;10.50;99.90
14000;DHT22;7075;53.574;10.054;2023-05-07T00:28:45;10.50;99.90
14000;DHT22;7075;53.574;10.054;2023-05-07T00:31:11;10.50;99.90
14000;DHT22;7075;53.574;10.054;2023-05-07T00:33:38;10.50;99.90
14000;DHT22;7075;53.574;10.054;2023-05-07T00:36:03;10.50;99.90
14000;DHT22;7075;53.574;10.054;2023-05-07T00:38:29;10.40;99.90
14000;DHT22;7075;53.574;10.054;2023-05-07T00:40:54;10.40;99.90
14000;DHT22;7075;53.574;10.054;2023-05-07T00:43:20;10.40;99.90
14000;DHT22;7075;53.574;10.054;2023-05-07T00:45:45;10.40;99.90
14000;DHT22;7075;53.574;10.054;2023-05-07T00:48:11;10.40;99.90
14000;DHT22;7075;53.574;10.054;2023-05-07T00:50:38;10.40;99.90
14000;DHT22;7075;53.574;10.054;2023-05-07T00:53:04;10.40;99.90
14000;DHT22;7075;53.574;10.054;2023-05-07T00:55:29;10.40;99.90
14000;DHT22;7075;53.574;10.054;2023-05-07T00:57:55;10.40;99.90
14000;DHT22;7075;53.574;10.054;2023-05-07T01:00:21;10.40;99.90
14000;DHT22;7075;53.574;10.054;2023-05-07T01:02:46;10.40;99.90
14000;DHT22;7075;53.574;10.054;2023-05-07T01:05:13;10.40;99.90
14000;DHT22;7075;53.574;10.054;2023-05-07T01:07:40;10.40;99.90
14000;DHT22;7075;53.574;10.054;2023-05-07T01:10:07;10.40;99.90
14000;DHT22;7075;53.574;10.054;2023-05-07T01:12:35;10.30;99.90
14000;DHT22;7075;53.574;10.054;2023-05-07T01:15:02;10.30;99.90
14000;DHT22;7075;53.574;10.054;2023-05-07T01:17:28;10.30;99.90
14000;DHT22;7075;53.574;10.054;2023-05-07T01:19:54;10.30;99.90
14000;DHT22;7075;53.574;10.054;2023-05-07T01:22:36;10.30;99.90
14000;DHT22;7075;53.574;10.054;2023-05-07T01:25:03;10.30;99.90
14000;DHT22;7075;53.574;10.054;2023-05-07T01:27:29;10.30;99.90
14000;DHT22;7075;53.574;10.054;2023-05-07T01:29:55;10.30;99.90
14000;DHT22;7075;53.574;10.054;2023-05-07T01:35:12;10.40;99.90
14000;DHT22;7075;53.574;10.054;2023-05-07T01:37:39;10.30;99.90
14000;DHT22;7075;53.574;10.054;2023-05-07T01:40:06;10.30;99.90
14000;DHT22;7075;53.574;10.054;2023-05-07T01:42:33;10.40;99.90
14000;DHT22;7075;53.574;10.054;2023-05-07T01:44:58;10.40;99.90
14000;DHT22;7075;53.574;10.054;2023-05-07T01:47:25;10.40;99.90
14000;DHT22;7075;53.574;10.054;2023-05-07T01:49:51;10.40;99.90
14000;DHT22;7075;53.574;10.054;2023-05-07T01:52:17;10.40;99.90
14000;DHT22;7075;53.574;10.054;2023-05-07T01:54:43;10.40;99.90
14000;DHT22;7075;53.574;10.054;2023-05-07T01:57:08;10.40;99.90
14000;DHT22;7075;53.574;10.054;2023-05-07T01:59:34;10.40;99.90
14000;DHT22;7075;53.574;10.054;2023-05-07T02:01:59;10.30;99.90
14000;DHT22;7075;53.574;10.054;2023-05-07T02:04:26;10.30;99.90
14000;DHT22;7075;53.574;10.054;2023-05-07T02:06:51;10.30;99.90
14000;DHT22;7075;53.574;10.054;2023-05-07T02:09:18;10.20;99.90
14000;DHT22;7075;53.574;10.054;2023-05-07T02:11:47;10.20;99.90
14000;DHT22;7075;53.574;10.054;2023-05-07T02:14:13;10.30;99.90
14000;DHT22;7075;53.574;10.054;2023-05-07T02:16:38;10.30;99.90
14000;DHT22;7075;53.574;10.054;2023-05-07T02:19:04;10.30;99.90
14000;DHT22;7075;53.574;10.054;2023-05-07T02:21:29;10.20;99.90
14000;DHT22;7075;53.574;10.054;2023-05-07T02:23:55;10.20;99.90
14000;DHT22;7075;53.574;10.054;2023-05-07T02:26:20;10.20;99.90
14000;DHT22;7075;53.574;10.054;2023-05-07T02:28:54;10.20;99.90
14000;DHT22;7075;53.574;10.054;2023-05-07T02:31:19;10.20;99.90
14000;DHT22;7075;53.574;10.054;2023-05-07T02:33:45;10.20;99.90
14000;DHT22;7075;53.574;10.054;2023-05-07T02:36:12;10.20;99.90
14000;DHT22;7075;53.574;10.054;2023-05-07T02:38:38;10.20;99.90
14000;DHT22;7075;53.574;10.054;2023-05-07T02:41:07;10.20;99.90
14000;DHT22;7075;53.574;10.054;2023-05-07T02:43:32;10.20;99.90
14000;DHT22;7075;53.574;10.054;2023-05-07T02:46:02;10.20;99.90
14000;DHT22;7075;53.574;10.054;2023-05-07T02:48:28;10.20;99.90
14000;DHT22;7075;53.574;10.054;2023-05-07T02:50:54;10.10;99.90
14000;DHT22;7075;53.574;10.054;2023-05-07T02:53:20;10.20;99.90
14000;DHT22;7075;53.574;10.054;2023-05-07T02:55:45;10.20;99.90
14000;DHT22;7075;53.574;10.054;2023-05-07T02:58:11;10.20;99.90
14000;DHT22;7075;53.574;10.054;2023-05-07T03:00:36;10.20;99.90
14000;DHT22;7075;53.574;10.054;2023-05-07T03:03:02;10.20;99.90
14000;DHT22;7075;53.574;10.054;2023-05-07T03:05:28;10.20;99.90
14000;DHT22;7075;53.574;10.054;2023-05-07T03:07:53;10.20;99.90
14000;DHT22;7075;53.574;10.054;2023-05-07T03:10:19;10.20;99.90
14000;DHT22;7075;53.574;10.054;2023-05-07T03:16:06;10.20;99.90
14000;DHT22;7075;53.574;10.054;2023-05-07T03:18:32;10.20;99.90
14000;DHT22;7075;53.574;10.054;2023-05-07T03:20:57;10.20;99.90
14000;DHT22;7075;53.574;10.054;2023-05-07T03:23:23;10.20;99.90
14000;DHT22;7075;53.574;10.054;2023-05-07T03:25:49;10.20;99.90
14000;DHT22;7075;53.574;10.054;2023-05-07T03:28:14;10.20;99.90
14000;DHT22;7075;53.574;10.054;2023-05-07T03:30:40;10.20;99.90
14000;DHT22;7075;53.574;10.054;2023-05-07T03:33:05;10.20;99.90
14000;DHT22;7075;53.574;10.054;2023-05-07T03:35:31;10.20;99.90
14000;DHT22;7075;53.574;10.054;2023-05-07T03:37:56;10.20;99.90
14000;DHT22;7075;53.574;10.054;2023-05-07T03:40:22;10.20;99.90
14000;DHT22;7075;53.574;10.054;2023-05-07T03:42:47;10.20;99.90
14000;DHT22;7075;53.574;10.054;2023-05-07T03:45:13;10.10;99.90
14000;DHT22;7075;53.574;10.054;2023-05-07T03:47:47;10.10;99.90
14000;DHT22;7075;53.574;10.054;2023-05-07T03:50:12;10.10;99.90
14000;DHT22;7075;53.574;10.054;2023-05-07T03:52:38;10.10;99.90
14000;DHT22;7075;53.574;10.054;2023-05-07T03:55:04;10.20;99.90
14000;DHT22;7075;53.574;10.054;2023-05-07T03:57:29;10.10;99.90
14000;DHT22;7075;53.574;10.054;2023-05-07T03:59:55;10.10;99.90
14000;DHT22;7075;53.574;10.054;2023-05-07T04:02:20;10.10;99.90
14000;DHT22;7075;53.574;10.054;2023-05-07T04:04:48;10.10;99.90
14000;DHT22;7075;53.574;10.054;2023-05-07T04:07:14;10.10;99.90
14000;DHT22;7075;53.574;10.054;2023-05-07T04:09:40;10.10;99.90
14000;DHT22;7075;53.574;10.054;2023-05-07T04:12:05;10.10;99.90
14000;DHT22;7075;53.574;10.054;2023-05-07T04:14:31;10.10;99.90
14000;DHT22;7075;53.574;10.054;2023-05-07T04:16:58;10.10;99.90
14000;DHT22;7075;53.574;10.054;2023-05-07T04:19:24;10.20;99.90
14000;DHT22;7075;53.574;10.054;2023-05-07T04:21:50;10.20;99.90
14000;DHT22;7075;53.574;10.054;2023-05-07T04:24:16;10.10;99.90
14000;DHT22;7075;53.574;10.054;2023-05-07T04:26:41;10.10;99.90
14000;DHT22;7075;53.574;10.054;2023-05-07T04:29:07;10.10;99.90
14000;DHT22;7075;53.574;10.054;2023-05-07T04:31:33;10.10;99.90
14000;DHT22;7075;53.574;10.054;2023-05-07T04:33:58;10.10;99.90
14000;DHT22;7075;53.574;10.054;2023-05-07T04:36:24;10.10;99.90
14000;DHT22;7075;53.574;10.054;2023-05-07T04:38:53;10.10;99.90
14000;DHT22;7075;53.574;10.054;2023-05-07T04:41:18;10.10;99.90
14000;DHT22;7075;53.574;10.054;2023-05-07T04:43:44;10.10;99.90
14000;DHT22;7075;53.574;10.054;2023-05-07T04:46:09;10.10;99.90
14000;DHT22;7075;53.574;10.054;2023-05-07T04:48:35;10.10;99.90
14000;DHT22;7075;53.574;10.054;2023-05-07T04:51:00;10.10;99.90
14000;DHT22;7075;53.574;10.054;2023-05-07T04:53:26;10.10;99.90
14000;DHT22;7075;53.574;10.054;2023-05-07T04:55:56;10.10;99.90
14000;DHT22;7075;53.574;10.054;2023-05-07T04:58:23;10.10;99.90
14000;DHT22;7075;53.574;10.054;2023-05-07T05:00:49;10.10;99.90
14000;DHT22;7075;53.574;10.054;2023-05-07T05:03:16;10.10;99.90
14000;DHT22;7075;53.574;10.054;2023-05-07T05:05:41;10.10;99.90
14000;DHT22;7075;53.574;10.054;2023-05-07T05:08:07;10.10;99.90
14000;DHT22;7075;53.574;10.054;2023-05-07T05:10:32;10.10;99.90
14000;DHT22;7075;53.574;10.054;2023-05-07T05:12:58;10.20;99.90
14000;DHT22;7075;53.574;10.054;2023-05-07T05:15:23;10.10;99.90
14000;DHT22;7075;53.574;10.054;2023-05-07T05:17:49;10.10;99.90
14000;DHT22;7075;53.574;10.054;2023-05-07T05:20:14;10.10;99.90
14000;DHT22;7075;53.574;10.054;2023-05-07T05:22:41;10.10;99.90
14000;DHT22;7075;53.574;10.054;2023-05-07T05:25:07;10.10;99.90
14000;DHT22;7075;53.574;10.054;2023-05-07T05:27:33;10.20;99.90
14000;DHT22;7075;53.574;10.054;2023-05-07T05:29:59;10.20;99.90
14000;DHT22;7075;53.574;10.054;2023-05-07T05:32:24;10.10;99.90
14000;DHT22;7075;53.574;10.054;2023-05-07T05:34:50;10.10;99.90
14000;DHT22;7075;53.574;10.054;2023-05-07T05:37:16;10.20;99.90
14000;DHT22;7075;53.574;10.054;2023-05-07T05:39:42;10.20;99.90
14000;DHT22;7075;53.574;10.054;2023-05-07T05:42:07;10.20;99.90
14000;DHT22;7075;53.574;10.054;2023-05-07T05:44:33;10.20;99.90
14000;DHT22;7075;53.574;10.054;2023-05-07T05:46:59;10.20;99.90
14000;DHT22;7075;53.574;10.054;2023-05-07T05:49:25;10.20;99.90
14000;DHT22;7075;53.574;10.054;2023-05-07T05:51:50;10.20;99.90
14000;DHT22;7075;53.574;10.054;2023-05-07T05:54:16;10.20;99.90
14000;DHT22;7075;53.574;10.054;2023-05-07T05:56:42;10.20;99.90
14000;DHT22;7075;53.574;10.054;2023-05-07T05:59:07;10.20;99.90
14000;DHT22;7075;53.574;10.054;2023-05-07T06:01:33;10.20;99.90
14000;DHT22;7075;53.574;10.054;2023-05-07T06:03:59;10.20;99.90
14000;DHT22;7075;53.574;10.054;2023-05-07T06:06:24;10.20;99.90
14000;DHT22;7075;53.574;10.054;2023-05-07T06:08:50;10.20;99.90
14000;DHT22;7075;53.574;10.054;2023-05-07T06:11:15;10.20;99.90
14000;DHT22;7075;53.574;10.054;2023-05-07T06:13:41;10.20;99.90
14000;DHT22;7075;53.574;10.054;2023-05-07T06:16:07;10.20;99.90
14000;DHT22;7075;53.574;10.054;2023-05-07T06:18:32;10.20;99.90
14000;DHT22;7075;53.574;10.054;2023-05-07T06:20:58;10.20;99.90
14000;DHT22;7075;53.574;10.054;2023-05-07T06:23:23;10.20;99.90
14000;DHT22;7075;53.574;10.054;2023-05-07T06:25:51;10.20;99.90
14000;DHT22;7075;53.574;10.054;2023-05-07T06:28:16;10.20;99.90
14000;DHT22;7075;53.574;10.054;2023-05-07T06:30:42;10.20;99.90
14000;DHT22;7075;53.574;10.054;2023-05-07T06:33:08;10.20;99.90
14000;DHT22;7075;53.574;10.054;2023-05-07T06:35:37;10.20;99.90
14000;DHT22;7075;53.574;10.054;2023-05-07T06:38:02;10.20;99.90
14000;DHT22;7075;53.574;10.054;2023-05-07T06:40:28;10.20;99.90
14000;DHT22;7075;53.574;10.054;2023-05-07T06:42:53;10.20;99.90
14000;DHT22;7075;53.574;10.054;2023-05-07T06:45:19;10.30;99.90
14000;DHT22;7075;53.574;10.054;2023-05-07T06:47:45;10.30;99.90
14000;DHT22;7075;53.574;10.054;2023-05-07T06:50:11;10.30;99.90
14000;DHT22;7075;53.574;10.054;2023-05-07T06:52:37;10.30;99.90
14000;DHT22;7075;53.574;10.054;2023-05-07T06:55:02;10.30;99.90
14000;DHT22;7075;53.574;10.054;2023-05-07T06:57:28;10.30;99.90
14000;DHT22;7075;53.574;10.054;2023-05-07T06:59:53;10.30;99.90
14000;DHT22;7075;53.574;10.054;2023-05-07T07:02:19;10.30;99.90
14000;DHT22;7075;53.574;10.054;2023-05-07T07:04:45;10.30;99.90
14000;DHT22;7075;53.574;10.054;2023-05-07T07:07:10;10.40;99.90
14000;DHT22;7075;53.574;10.054;2023-05-07T07:09:36;10.40;99.90
14000;DHT22;7075;53.574;10.054;2023-05-07T07:12:02;10.40;99.90
14000;DHT22;7075;53.574;10.054;2023-05-07T07:14:27;10.40;99.90
14000;DHT22;7075;53.574;10.054;2023-05-07T07:16:53;10.40;99.90
14000;DHT22;7075;53.574;10.054;2023-05-07T07:19:18;10.40;99.90
14000;DHT22;7075;53.574;10.054;2023-05-07T07:21:45;10.50;99.90
14000;DHT22;7075;53.574;10.054;2023-05-07T07:24:11;10.50;99.90
14000;DHT22;7075;53.574;10.054;2023-05-07T07:26:36;10.50;99.90
14000;DHT22;7075;53.574;10.054;2023-05-07T07:29:02;10.50;99.90
14000;DHT22;7075;53.574;10.054;2023-05-07T07:31:27;10.50;99.90
14000;DHT22;7075;53.574;10.054;2023-05-07T07:33:53;10.50;99.90
14000;DHT22;7075;53.574;10.054;2023-05-07T07:36:18;10.50;99.90
14000;DHT22;7075;53.574;10.054;2023-05-07T07:38:44;10.50;99.90
14000;DHT22;7075;53.574;10.054;2023-05-07T07:41:10;10.50;99.90
14000;DHT22;7075;53.574;10.054;2023-05-07T07:43:35;10.50;99.90
14000;DHT22;7075;53.574;10.054;2023-05-07T07:46:01;10.50;99.90
14000;DHT22;7075;53.574;10.054;2023-05-07T07:48:27;10.50;99.90
14000;DHT22;7075;53.574;10.054;2023-05-07T07:50:52;10.50;99.90
14000;DHT22;7075;53.574;10.054;2023-05-07T07:53:18;10.60;99.90
14000;DHT22;7075;53.574;10.054;2023-05-07T07:55:44;10.60;99.90
14000;DHT22;7075;53.574;10.054;2023-05-07T07:58:09;10.60;99.90
14000;DHT22;7075;53.574;10.054;2023-05-07T08:00:35;10.60;99.90
14000;DHT22;7075;53.574;10.054;2023-05-07T08:03:01;10.70;99.90
14000;DHT22;7075;53.574;10.054;2023-05-07T08:05:28;10.70;99.90
14000;DHT22;7075;53.574;10.054;2023-05-07T08:07:54;10.70;99.90
14000;DHT22;7075;53.574;10.054;2023-05-07T08:10:21;10.70;99.90
14000;DHT22;7075;53.574;10.054;2023-05-07T08:12:50;10.70;99.90
14000;DHT22;7075;53.574;10.054;2023-05-07T08:15:16;10.70;99.90
14000;DHT22;7075;53.574;10.054;2023-05-07T08:17:42;10.70;99.90
14000;DHT22;7075;53.574;10.054;2023-05-07T08:20:08;10.70;99.90
14000;DHT22;7075;53.574;10.054;2023-05-07T08:22:35;10.80;99.90
14000;DHT22;7075;53.574;10.054;2023-05-07T08:25:01;10.70;99.90
14000;DHT22;7075;53.574;10.054;2023-05-07T08:27:26;10.80;99.90
14000;DHT22;7075;53.574;10.054;2023-05-07T08:29:59;10.80;99.90
14000;DHT22;7075;53.574;10.054;2023-05-07T08:32:25;10.80;99.90
14000;DHT22;7075;53.574;10.054;2023-05-07T08:34:51;10.80;99.90
14000;DHT22;7075;53.574;10.054;2023-05-07T08:37:16;10.80;99.90
14000;DHT22;7075;53.574;10.054;2023-05-07T08:39:42;10.90;99.90
14000;DHT22;7075;53.574;10.054;2023-05-07T08:42:09;10.90;99.90
14000;DHT22;7075;53.574;10.054;2023-05-07T08:44:38;10.90;99.90
14000;DHT22;7075;53.574;10.054;2023-05-07T08:47:06;10.90;99.90
14000;DHT22;7075;53.574;10.054;2023-05-07T08:49:33;10.90;99.90
14000;DHT22;7075;53.574;10.054;2023-05-07T08:51:59;11.00;99.90
14000;DHT22;7075;53.574;10.054;2023-05-07T08:54:26;10.90;99.90
14000;DHT22;7075;53.574;10.054;2023-05-07T08:56:53;11.00;99.90
14000;DHT22;7075;53.574;10.054;2023-05-07T08:59:18;11.00;99.90
14000;DHT22;7075;53.574;10.054;2023-05-07T09:01:44;11.00;99.90
14000;DHT22;7075;53.574;10.054;2023-05-07T09:04:10;11.00;99.90
14000;DHT22;7075;53.574;10.054;2023-05-07T09:06:35;11.00;99.90
14000;DHT22;7075;53.574;10.054;2023-05-07T09:09:03;11.00;99.90
14000;DHT22;7075;53.574;10.054;2023-05-07T09:11:30;11.00;99.90
14000;DHT22;7075;53.574;10.054;2023-05-07T09:13:57;11.00;99.90
14000;DHT22;7075;53.574;10.054;2023-05-07T09:16:29;11.10;99.90
14000;DHT22;7075;53.574;10.054;2023-05-07T09:18:57;11.10;99.90
14000;DHT22;7075;53.574;10.054;2023-05-07T09:21:24;11.10;99.90
14000;DHT22;7075;53.574;10.054;2023-05-07T09:23:55;11.10;99.90
14000;DHT22;7075;53.574;10.054;2023-05-07T09:26:24;11.10;99.90
14000;DHT22;7075;53.574;10.054;2023-05-07T09:28:51;11.10;99.90
14000;DHT22;7075;53.574;10.054;2023-05-07T09:31:18;11.20;99.90
14000;DHT22;7075;53.574;10.054;2023-05-07T09:33:44;11.20;99.90
14000;DHT22;7075;53.574;10.054;2023-05-07T09:36:12;11.20;99.90
14000;DHT22;7075;53.574;10.054;2023-05-07T09:38:38;11.30;99.90
14000;DHT22;7075;53.574;10.054;2023-05-07T09:41:13;11.30;99.90
14000;DHT22;7075;53.574;10.054;2023-05-07T09:43:41;11.30;99.90
14000;DHT22;7075;53.574;10.054;2023-05-07T09:46:17;11.30;99.90
14000;DHT22;7075;53.574;10.054;2023-05-07T09:48:45;11.30;99.90
14000;DHT22;7075;53.574;10.054;2023-05-07T09:51:24;11.40;99.90
14000;DHT22;7075;53.574;10.054;2023-05-07T09:53:53;11.40;99.90
14000;DHT22;7075;53.574;10.054;2023-05-07T09:56:19;11.40;99.90
14000;DHT22;7075;53.574;10.054;2023-05-07T09:58:46;11.40;99.90
14000;DHT22;7075;53.574;10.054;2023-05-07T10:01:12;11.40;99.90
14000;DHT22;7075;53.574;10.054;2023-05-07T10:03:40;11.50;99.90
14000;DHT22;7075;53.574;10.054;2023-05-07T10:06:09;11.50;99.90
14000;DHT22;7075;53.574;10.054;2023-05-07T10:08:36;11.50;99.90
14000;DHT22;7075;53.574;10.054;2023-05-07T10:11:04;11.60;99.90
14000;DHT22;7075;53.574;10.054;2023-05-07T10:13:30;11.60;99.90
14000;DHT22;7075;53.574;10.054;2023-05-07T10:15:57;11.60;99.90
14000;DHT22;7075;53.574;10.054;2023-05-07T10:18:23;11.60;99.90
14000;DHT22;7075;53.574;10.054;2023-05-07T10:20:55;11.60;99.90
14000;DHT22;7075;53.574;10.054;2023-05-07T10:23:24;11.60;99.90
14000;DHT22;7075;53.574;10.054;2023-05-07T10:25:51;11.60;99.90
14000;DHT22;7075;53.574;10.054;2023-05-07T10:28:19;11.70;99.90
14000;DHT22;7075;53.574;10.054;2023-05-07T10:34:00;11.70;99.90
14000;DHT22;7075;53.574;10.054;2023-05-07T10:36:27;11.80;99.90
14000;DHT22;7075;53.574;10.054;2023-05-07T10:38:53;11.80;99.90
14000;DHT22;7075;53.574;10.054;2023-05-07T10:41:20;11.80;99.90
14000;DHT22;7075;53.574;10.054;2023-05-07T10:43:46;11.80;99.90
14000;DHT22;7075;53.574;10.054;2023-05-07T10:46:15;11.80;99.90
14000;DHT22;7075;53.574;10.054;2023-05-07T10:51:26;11.90;99.90
14000;DHT22;7075;53.574;10.054;2023-05-07T10:56:38;11.90;99.90
14000;DHT22;7075;53.574;10.054;2023-05-07T11:02:00;12.00;99.90
14000;DHT22;7075;53.574;10.054;2023-05-07T11:04:29;12.10;99.90
14000;DHT22;7075;53.574;10.054;2023-05-07T11:15:13;12.20;99.90
14000;DHT22;7075;53.574;10.054;2023-05-07T11:17:55;12.30;99.90
14000;DHT22;7075;53.574;10.054;2023-05-07T11:26:10;12.50;99.90
14000;DHT22;7075;53.574;10.054;2023-05-07T11:28:40;12.50;99.90
14000;DHT22;7075;53.574;10.054;2023-05-07T11:31:07;12.60;99.90
14000;DHT22;7075;53.574;10.054;2023-05-07T11:33:34;12.70;99.90
14000;DHT22;7075;53.574;10.054;2023-05-07T11:36:02;12.70;99.90
14000;DHT22;7075;53.574;10.054;2023-05-07T11:38:29;12.80;99.90
14000;DHT22;7075;53.574;10.054;2023-05-07T11:40:56;12.90;99.90
14000;DHT22;7075;53.574;10.054;2023-05-07T11:43:22;13.00;99.90
14000;DHT22;7075;53.574;10.054;2023-05-07T11:45:48;13.00;99.90
14000;DHT22;7075;53.574;10.054;2023-05-07T11:48:15;13.10;99.90
14000;DHT22;7075;53.574;10.054;2023-05-07T11:51:00;13.20;99.90
14000;DHT22;7075;53.574;10.054;2023-05-07T11:53:28;13.30;99.90
14000;DHT22;7075;53.574;10.054;2023-05-07T11:56:00;13.30;99.90
14000;DHT22;7075;53.574;10.054;2023-05-07T11:58:26;13.30;99.90
14000;DHT22;7075;53.574;10.054;2023-05-07T12:00:53;13.40;99.90
14000;DHT22;7075;53.574;10.054;2023-05-07T12:03:18;13.50;99.90
14000;DHT22;7075;53.574;10.054;2023-05-07T12:05:45;13.60;99.90
14000;DHT22;7075;53.574;10.054;2023-05-07T12:08:18;13.70;99.90
14000;DHT22;7075;53.574;10.054;2023-05-07T12:10:45;13.70;99.90
14000;DHT22;7075;53.574;10.054;2023-05-07T12:13:21;13.80;99.90
14000;DHT22;7075;53.574;10.054;2023-05-07T12:15:54;13.90;99.90
14000;DHT22;7075;53.574;10.054;2023-05-07T12:18:21;14.00;99.90
14000;DHT22;7075;53.574;10.054;2023-05-07T12:20:48;14.00;99.90
14000;DHT22;7075;53.574;10.054;2023-05-07T12:23:14;14.10;99.90
14000;DHT22;7075;53.574;10.054;2023-05-07T12:25:42;14.10;99.90
14000;DHT22;7075;53.574;10.054;2023-05-07T12:28:14;14.10;99.90
14000;DHT22;7075;53.574;10.054;2023-05-07T12:30:44;14.10;99.90
14000;DHT22;7075;53.574;10.054;2023-05-07T12:33:10;14.10;99.90
14000;DHT22;7075;53.574;10.054;2023-05-07T12:35:39;14.10;99.90
14000;DHT22;7075;53.574;10.054;2023-05-07T12:38:08;14.10;99.90
14000;DHT22;7075;53.574;10.054;2023-05-07T12:43:02;14.20;99.90
14000;DHT22;7075;53.574;10.054;2023-05-07T12:45:27;14.20;99.90
14000;DHT22;7075;53.574;10.054;2023-05-07T12:47:53;14.20;99.90
14000;DHT22;7075;53.574;10.054;2023-05-07T12:50:18;14.30;99.90
14000;DHT22;7075;53.574;10.054;2023-05-07T12:52:47;14.30;99.90
14000;DHT22;7075;53.574;10.054;2023-05-07T12:55:17;14.40;99.90
14000;DHT22;7075;53.574;10.054;2023-05-07T12:57:48;14.50;99.90
14000;DHT22;7075;53.574;10.054;2023-05-07T13:00:14;14.60;99.90
14000;DHT22;7075;53.574;10.054;2023-05-07T13:02:41;14.60;99.90
14000;DHT22;7075;53.574;10.054;2023-05-07T13:05:07;14.70;99.90
14000;DHT22;7075;53.574;10.054;2023-05-07T13:07:33;14.80;99.90
14000;DHT22;7075;53.574;10.054;2023-05-07T13:09:59;14.90;99.90
14000;DHT22;7075;53.574;10.054;2023-05-07T13:12:25;14.90;99.90
14000;DHT22;7075;53.574;10.054;2023-05-07T13:14:50;15.00;99.90
14000;DHT22;7075;53.574;10.054;2023-05-07T13:17:16;15.10;99.90
14000;DHT22;7075;53.574;10.054;2023-05-07T13:19:41;15.20;99.90
14000;DHT22;7075;53.574;10.054;2023-05-07T13:22:07;15.30;99.90
14000;DHT22;7075;53.574;10.054;2023-05-07T13:24:32;15.30;99.90
14000;DHT22;7075;53.574;10.054;2023-05-07T13:26:58;15.40;99.90
14000;DHT22;7075;53.574;10.054;2023-05-07T13:29:23;15.50;99.90
14000;DHT22;7075;53.574;10.054;2023-05-07T13:31:58;15.60;99.90
14000;DHT22;7075;53.574;10.054;2023-05-07T13:34:25;15.70;99.90
14000;DHT22;7075;53.574;10.054;2023-05-07T13:36:50;15.90;99.90
14000;DHT22;7075;53.574;10.054;2023-05-07T13:39:16;16.00;99.90
14000;DHT22;7075;53.574;10.054;2023-05-07T13:41:42;16.20;99.90
14000;DHT22;7075;53.574;10.054;2023-05-07T13:44:07;16.40;99.90
14000;DHT22;7075;53.574;10.054;2023-05-07T13:46:33;16.50;99.90
14000;DHT22;7075;53.574;10.054;2023-05-07T13:48:58;16.70;99.90
14000;DHT22;7075;53.574;10.054;2023-05-07T13:51:24;16.80;99.90
14000;DHT22;7075;53.574;10.054;2023-05-07T13:53:51;17.00;99.90
14000;DHT22;7075;53.574;10.054;2023-05-07T13:56:17;17.10;99.90
14000;DHT22;7075;53.574;10.054;2023-05-07T13:58:43;17.30;99.90
14000;DHT22;7075;53.574;10.054;2023-05-07T14:01:08;17.50;99.90
14000;DHT22;7075;53.574;10.054;2023-05-07T14:03:34;17.60;99.90
14000;DHT22;7075;53.574;10.054;2023-05-07T14:06:00;17.80;99.90
14000;DHT22;7075;53.574;10.054;2023-05-07T14:08:27;17.80;99.90
14000;DHT22;7075;53.574;10.054;2023-05-07T14:10:53;17.90;99.90
14000;DHT22;7075;53.574;10.054;2023-05-07T14:13:19;17.90;99.90
14000;DHT22;7075;53.574;10.054;2023-05-07T14:15:44;18.00;99.90
14000;DHT22;7075;53.574;10.054;2023-05-07T14:18:12;18.10;99.90
14000;DHT22;7075;53.574;10.054;2023-05-07T14:20:38;18.20;99.90
14000;DHT22;7075;53.574;10.054;2023-05-07T14:23:03;18.30;99.90
14000;DHT22;7075;53.574;10.054;2023-05-07T14:25:29;18.60;99.90
14000;DHT22;7075;53.574;10.054;2023-05-07T14:27:54;18.70;99.90
14000;DHT22;7075;53.574;10.054;2023-05-07T14:30:20;18.80;99.90
14000;DHT22;7075;53.574;10.054;2023-05-07T14:32:47;18.80;99.90
14000;DHT22;7075;53.574;10.054;2023-05-07T14:35:13;18.90;99.90
14000;DHT22;7075;53.574;10.054;2023-05-07T14:37:38;19.00;99.90
14000;DHT22;7075;53.574;10.054;2023-05-07T14:40:04;19.10;99.90
14000;DHT22;7075;53.574;10.054;2023-05-07T14:42:30;19.10;99.90
14000;DHT22;7075;53.574;10.054;2023-05-07T14:44:56;19.00;99.90
14000;DHT22;7075;53.574;10.054;2023-05-07T14:47:21;18.90;99.90
14000;DHT22;7075;53.574;10.054;2023-05-07T14:49:47;18.80;99.90
14000;DHT22;7075;53.574;10.054;2023-05-07T14:52:12;18.60;99.90
14000;DHT22;7075;53.574;10.054;2023-05-07T14:54:38;18.50;99.90
14000;DHT22;7075;53.574;10.054;2023-05-07T14:57:08;18.40;99.90
14000;DHT22;7075;53.574;10.054;2023-05-07T14:59:34;18.30;99.90
14000;DHT22;7075;53.574;10.054;2023-05-07T15:02:00;18.30;99.90
14000;DHT22;7075;53.574;10.054;2023-05-07T15:04:26;18.30;99.90
14000;DHT22;7075;53.574;10.054;2023-05-07T15:06:51;18.20;99.90
14000;DHT22;7075;53.574;10.054;2023-05-07T15:09:19;18.20;99.90
14000;DHT22;7075;53.574;10.054;2023-05-07T15:11:44;18.20;99.90
14000;DHT22;7075;53.574;10.054;2023-05-07T15:14:10;18.30;99.90
14000;DHT22;7075;53.574;10.054;2023-05-07T15:16:35;18.30;99.90
14000;DHT22;7075;53.574;10.054;2023-05-07T15:19:01;18.20;99.90
14000;DHT22;7075;53.574;10.054;2023-05-07T15:21:27;18.20;99.90
14000;DHT22;7075;53.574;10.054;2023-05-07T15:23:52;18.10;99.90
14000;DHT22;7075;53.574;10.054;2023-05-07T15:26:18;18.10;99.90
14000;DHT22;7075;53.574;10.054;2023-05-07T15:28:43;18.10;99.90
14000;DHT22;7075;53.574;10.054;2023-05-07T15:31:09;18.10;99.90
14000;DHT22;7075;53.574;10.054;2023-05-07T15:33:34;18.30;99.90
14000;DHT22;7075;53.574;10.054;2023-05-07T15:36:00;18.40;99.90
14000;DHT22;7075;53.574;10.054;2023-05-07T15:38:26;18.50;99.90
14000;DHT22;7075;53.574;10.054;2023-05-07T15:40:52;18.40;99.90
14000;DHT22;7075;53.574;10.054;2023-05-07T15:43:18;18.40;99.90
14000;DHT22;7075;53.574;10.054;2023-05-07T15:45:43;18.40;99.90
14000;DHT22;7075;53.574;10.054;2023-05-07T15:48:10;18.40;99.90
14000;DHT22;7075;53.574;10.054;2023-05-07T15:50:36;18.40;99.90
14000;DHT22;7075;53.574;10.054;2023-05-07T15:53:02;18.30;99.90
14000;DHT22;7075;53.574;10.054;2023-05-07T15:55:29;18.20;99.90
14000;DHT22;7075;53.574;10.054;2023-05-07T15:57:54;18.10;99.90
14000;DHT22;7075;53.574;10.054;2023-05-07T16:00:21;18.10;99.90